Clipper Imabari — 3ERD7 — position and weather

sailwx.info

Track history (hours):
 
Tides and Currents Weather Stations Pressure Air Temp Water Temp Dewpoint Dewpoint Depression Visibility Wind Speed Wind Dir Waves Ship Positions

Clipper Imabari

Last reported at 2015-Sep-02 20:21 UTC. Time now 2015-Sep-04 18:55 UTC.
Position S 34°43' E 018°58'.

Length 169 m; draft 9.2 m.

Type: Ship. MMSI: 370016000.

Date/timePositionNaut miles runAvg speedWind from/ knotsBaromVisibWave heightAir tempDewpointWater temp
2015-Sep-02 20:21S 34°43' E 018°58'1111.1
2015-Sep-02 19:23S 34°47' E 019°09'2411.8
2015-Sep-02 17:20S 34°58' E 019°36'1111.7
2015-Sep-02 16:23S 35°02' E 019°48'373 9.1
2015-Aug-31 23:24S 33°53' E 027°13'6010.2
2015-Aug-31 17:30S 33°24' E 028°16'23312.7
2015-Aug-30 23:08S 30°23' E 031°09'813.2
2015-Aug-30 22:34S 30°16' E 031°12'1211.7
2015-Aug-30 21:33S 30°04' E 031°14'1110.6
2015-Aug-30 20:34S 29°54' E 031°11'7 7.4
2015-Aug-30 19:33S 29°53' E 031°02'0 0.3
2015-Aug-30 18:31S 29°53' E 031°02'0 0.0
2015-Aug-30 17:31S 29°53' E 031°02'0 0.0
2015-Aug-30 16:31S 29°53' E 031°02'0 0.0
2015-Aug-30 15:31S 29°53' E 031°02'0 0.0
2015-Aug-30 14:31S 29°53' E 031°02'0 0.0
2015-Aug-30 13:31S 29°53' E 031°02'0 0.0
2015-Aug-30 12:31S 29°53' E 031°02'0 0.0
2015-Aug-30 11:31S 29°53' E 031°02'0 0.0
2015-Aug-30 10:31S 29°53' E 031°02'0 0.0
2015-Aug-30 09:31S 29°53' E 031°02'0 0.0
2015-Aug-30 08:31S 29°53' E 031°02'0 0.0
2015-Aug-30 07:31S 29°53' E 031°02'0 0.0
2015-Aug-30 06:31S 29°53' E 031°02'0 0.0
2015-Aug-30 05:31S 29°53' E 031°02'0 0.0
2015-Aug-30 04:31S 29°53' E 031°02'0 0.0
2015-Aug-30 03:31S 29°53' E 031°02'0 0.0
2015-Aug-30 02:31S 29°53' E 031°02'0 0.0
2015-Aug-30 01:31S 29°53' E 031°02'0 0.0
2015-Aug-30 00:31S 29°53' E 031°02'0 0.0
2015-Aug-29 23:31S 29°53' E 031°02'0 0.0
2015-Aug-29 22:31S 29°53' E 031°02'0 0.0
2015-Aug-29 21:31S 29°53' E 031°02'0 0.0
2015-Aug-29 20:31S 29°53' E 031°02'0 0.0
2015-Aug-29 19:31S 29°53' E 031°02'0 0.0
2015-Aug-29 18:31S 29°53' E 031°02'0 0.0
2015-Aug-29 17:31S 29°53' E 031°02'0 0.0
2015-Aug-29 16:31S 29°53' E 031°02'0 0.0
2015-Aug-29 15:31S 29°53' E 031°02'0 0.0
2015-Aug-29 14:31S 29°53' E 031°02'0 0.0
2015-Aug-29 13:31S 29°53' E 031°02'0 0.0
2015-Aug-29 12:31S 29°53' E 031°02'2 2.2
2015-Aug-29 11:33S 29°51' E 031°04'4 4.0
2015-Aug-29 10:33S 29°49' E 031°07'1 0.7
2015-Aug-29 09:33S 29°49' E 031°08'4 4.0
2015-Aug-29 08:33S 29°49' E 031°12'9 8.8
2015-Aug-29 07:33S 29°46' E 031°22'10 9.6
2015-Aug-29 06:33S 29°44' E 031°33'1110.9
2015-Aug-29 05:33S 29°42' E 031°45'1111.1
2015-Aug-29 04:33S 29°38' E 031°57'3911.3
2015-Aug-29 01:08S 29°28' E 032°40'2311.4
2015-Aug-28 23:07S 29°22' E 033°05'711.8
2015-Aug-28 22:31S 29°20' E 033°13'1410.6
2015-Aug-28 21:09S 29°16' E 033°29'910.5
2015-Aug-28 20:18S 29°14' E 033°39'6010.4
2015-Aug-28 14:32S 28°58' E 034°45'  
Track history (hours):
 
Tides and Currents Weather Stations Pressure Air Temp Water Temp Dewpoint Dewpoint Depression Visibility Wind Speed Wind Dir Waves Ship Positions

Clipper Imabari

Last reported at 2015-Sep-02 20:21 UTC. Time now 2015-Sep-04 18:55 UTC.
Position S 34°43' E 018°58'.

Length 169 m; draft 9.2 m.

Type: Ship. MMSI: 370016000.

Date/timePositionNaut miles runAvg speedWind from/ knotsBaromVisibWave heightAir tempDewpointWater temp
2015-Sep-02 20:21S 34°43' E 018°58'1111.1
2015-Sep-02 19:23S 34°47' E 019°09'2411.8
2015-Sep-02 17:20S 34°58' E 019°36'1111.7
2015-Sep-02 16:23S 35°02' E 019°48'373 9.1
2015-Aug-31 23:24S 33°53' E 027°13'6010.2
2015-Aug-31 17:30S 33°24' E 028°16'23312.7
2015-Aug-30 23:08S 30°23' E 031°09'813.2
2015-Aug-30 22:34S 30°16' E 031°12'1211.7
2015-Aug-30 21:33S 30°04' E 031°14'1110.6
2015-Aug-30 20:34S 29°54' E 031°11'7 7.4
2015-Aug-30 19:33S 29°53' E 031°02'0 0.3
2015-Aug-30 18:31S 29°53' E 031°02'0 0.0
2015-Aug-30 17:31S 29°53' E 031°02'0 0.0
2015-Aug-30 16:31S 29°53' E 031°02'0 0.0
2015-Aug-30 15:31S 29°53' E 031°02'0 0.0
2015-Aug-30 14:31S 29°53' E 031°02'0 0.0
2015-Aug-30 13:31S 29°53' E 031°02'0 0.0
2015-Aug-30 12:31S 29°53' E 031°02'0 0.0
2015-Aug-30 11:31S 29°53' E 031°02'0 0.0
2015-Aug-30 10:31S 29°53' E 031°02'0 0.0
2015-Aug-30 09:31S 29°53' E 031°02'0 0.0
2015-Aug-30 08:31S 29°53' E 031°02'0 0.0
2015-Aug-30 07:31S 29°53' E 031°02'0 0.0
2015-Aug-30 06:31S 29°53' E 031°02'0 0.0
2015-Aug-30 05:31S 29°53' E 031°02'0 0.0
2015-Aug-30 04:31S 29°53' E 031°02'0 0.0
2015-Aug-30 03:31S 29°53' E 031°02'0 0.0
2015-Aug-30 02:31S 29°53' E 031°02'0 0.0
2015-Aug-30 01:31S 29°53' E 031°02'0 0.0
2015-Aug-30 00:31S 29°53' E 031°02'0 0.0
2015-Aug-29 23:31S 29°53' E 031°02'0 0.0
2015-Aug-29 22:31S 29°53' E 031°02'0 0.0
2015-Aug-29 21:31S 29°53' E 031°02'0 0.0
2015-Aug-29 20:31S 29°53' E 031°02'0 0.0
2015-Aug-29 19:31S 29°53' E 031°02'0 0.0
2015-Aug-29 18:31S 29°53' E 031°02'0 0.0
2015-Aug-29 17:31S 29°53' E 031°02'0 0.0
2015-Aug-29 16:31S 29°53' E 031°02'0 0.0
2015-Aug-29 15:31S 29°53' E 031°02'0 0.0
2015-Aug-29 14:31S 29°53' E 031°02'0 0.0
2015-Aug-29 13:31S 29°53' E 031°02'0 0.0
2015-Aug-29 12:31S 29°53' E 031°02'2 2.2
2015-Aug-29 11:33S 29°51' E 031°04'4 4.0
2015-Aug-29 10:33S 29°49' E 031°07'1 0.7
2015-Aug-29 09:33S 29°49' E 031°08'4 4.0
2015-Aug-29 08:33S 29°49' E 031°12'9 8.8
2015-Aug-29 07:33S 29°46' E 031°22'10 9.6
2015-Aug-29 06:33S 29°44' E 031°33'1110.9
2015-Aug-29 05:33S 29°42' E 031°45'1111.1
2015-Aug-29 04:33S 29°38' E 031°57'3911.3
2015-Aug-29 01:08S 29°28' E 032°40'2311.4
2015-Aug-28 23:07S 29°22' E 033°05'711.8
2015-Aug-28 22:31S 29°20' E 033°13'1410.6
2015-Aug-28 21:09S 29°16' E 033°29'910.5
2015-Aug-28 20:18S 29°14' E 033°39'6010.4
2015-Aug-28 14:32S 28°58' E 034°45'  

Dump ship's entire track history